sensor_id;sensor_type;location;lat;lon;timestamp;P1;durP1;ratioP1;P2;durP2;ratioP2
12816;SDS011;6473;51.552;6.716;2023-06-14T00:01:31;4.38;;;3.88;;
12816;SDS011;6473;51.552;6.716;2023-06-14T00:04:54;5.10;;;4.50;;
12816;SDS011;6473;51.552;6.716;2023-06-14T00:07:38;4.45;;;3.92;;
12816;SDS011;6473;51.552;6.716;2023-06-14T00:10:17;5.63;;;4.22;;
12816;SDS011;6473;51.552;6.716;2023-06-14T00:13:04;4.43;;;3.78;;
12816;SDS011;6473;51.552;6.716;2023-06-14T00:16:17;4.68;;;4.18;;
12816;SDS011;6473;51.552;6.716;2023-06-14T00:19:05;4.82;;;4.38;;
12816;SDS011;6473;51.552;6.716;2023-06-14T00:23:09;4.53;;;4.13;;
12816;SDS011;6473;51.552;6.716;2023-06-14T00:25:28;4.45;;;4.05;;
12816;SDS011;6473;51.552;6.716;2023-06-14T00:28:14;4.70;;;4.30;;
12816;SDS011;6473;51.552;6.716;2023-06-14T00:30:51;5.72;;;4.20;;
12816;SDS011;6473;51.552;6.716;2023-06-14T00:33:38;4.82;;;4.22;;
12816;SDS011;6473;51.552;6.716;2023-06-14T00:36:42;5.10;;;4.28;;
12816;SDS011;6473;51.552;6.716;2023-06-14T00:40:00;6.22;;;4.10;;
12816;SDS011;6473;51.552;6.716;2023-06-14T00:46:50;5.03;;;3.92;;
12816;SDS011;6473;51.552;6.716;2023-06-14T00:53:28;4.78;;;4.25;;
12816;SDS011;6473;51.552;6.716;2023-06-14T00:56:05;4.30;;;3.90;;
12816;SDS011;6473;51.552;6.716;2023-06-14T00:58:53;4.60;;;4.20;;
12816;SDS011;6473;51.552;6.716;2023-06-14T01:04:09;4.65;;;4.15;;
12816;SDS011;6473;51.552;6.716;2023-06-14T01:06:40;4.30;;;4.00;;
12816;SDS011;6473;51.552;6.716;2023-06-14T01:09:15;5.95;;;4.10;;
12816;SDS011;6473;51.552;6.716;2023-06-14T01:11:49;4.15;;;3.85;;
12816;SDS011;6473;51.552;6.716;2023-06-14T01:14:21;3.53;;;3.33;;
12816;SDS011;6473;51.552;6.716;2023-06-14T01:16:48;5.82;;;4.10;;
12816;SDS011;6473;51.552;6.716;2023-06-14T01:19:21;4.28;;;3.72;;
12816;SDS011;6473;51.552;6.716;2023-06-14T01:21:51;4.05;;;3.58;;
12816;SDS011;6473;51.552;6.716;2023-06-14T01:24:19;3.85;;;3.55;;
12816;SDS011;6473;51.552;6.716;2023-06-14T01:26:51;4.80;;;3.88;;
12816;SDS011;6473;51.552;6.716;2023-06-14T01:29:22;4.20;;;3.80;;
12816;SDS011;6473;51.552;6.716;2023-06-14T01:31:51;4.38;;;3.88;;
12816;SDS011;6473;51.552;6.716;2023-06-14T01:34:20;4.65;;;3.78;;
12816;SDS011;6473;51.552;6.716;2023-06-14T01:36:50;3.88;;;3.42;;
12816;SDS011;6473;51.552;6.716;2023-06-14T01:39:22;3.72;;;3.42;;
12816;SDS011;6473;51.552;6.716;2023-06-14T01:41:50;3.75;;;3.45;;
12816;SDS011;6473;51.552;6.716;2023-06-14T01:44:18;3.92;;;3.63;;
12816;SDS011;6473;51.552;6.716;2023-06-14T01:46:46;4.93;;;3.78;;
12816;SDS011;6473;51.552;6.716;2023-06-14T01:49:14;3.78;;;3.47;;
12816;SDS011;6473;51.552;6.716;2023-06-14T01:51:40;4.65;;;3.78;;
12816;SDS011;6473;51.552;6.716;2023-06-14T01:54:07;6.15;;;3.63;;
12816;SDS011;6473;51.552;6.716;2023-06-14T01:56:36;3.88;;;3.42;;
12816;SDS011;6473;51.552;6.716;2023-06-14T01:59:03;4.03;;;3.60;;
12816;SDS011;6473;51.552;6.716;2023-06-14T02:01:32;3.67;;;3.38;;
12816;SDS011;6473;51.552;6.716;2023-06-14T02:04:00;3.50;;;3.20;;
12816;SDS011;6473;51.552;6.716;2023-06-14T02:06:27;3.45;;;3.15;;
12816;SDS011;6473;51.552;6.716;2023-06-14T02:08:54;4.07;;;3.72;;
12816;SDS011;6473;51.552;6.716;2023-06-14T02:11:21;5.93;;;3.22;;
12816;SDS011;6473;51.552;6.716;2023-06-14T02:13:51;4.72;;;3.70;;
12816;SDS011;6473;51.552;6.716;2023-06-14T02:16:17;4.75;;;3.40;;
12816;SDS011;6473;51.552;6.716;2023-06-14T02:18:44;4.00;;;3.25;;
12816;SDS011;6473;51.552;6.716;2023-06-14T02:21:11;3.97;;;3.58;;
12816;SDS011;6473;51.552;6.716;2023-06-14T02:23:38;3.60;;;3.30;;
12816;SDS011;6473;51.552;6.716;2023-06-14T02:26:05;4.50;;;3.40;;
12816;SDS011;6473;51.552;6.716;2023-06-14T02:28:33;3.30;;;3.00;;
12816;SDS011;6473;51.552;6.716;2023-06-14T02:31:02;3.80;;;3.38;;
12816;SDS011;6473;51.552;6.716;2023-06-14T02:33:29;3.83;;;3.50;;
12816;SDS011;6473;51.552;6.716;2023-06-14T02:35:55;4.78;;;3.40;;
12816;SDS011;6473;51.552;6.716;2023-06-14T02:38:22;3.70;;;3.40;;
12816;SDS011;6473;51.552;6.716;2023-06-14T02:40:49;3.67;;;3.25;;
12816;SDS011;6473;51.552;6.716;2023-06-14T02:43:16;4.03;;;3.40;;
12816;SDS011;6473;51.552;6.716;2023-06-14T02:45:43;4.07;;;3.53;;
12816;SDS011;6473;51.552;6.716;2023-06-14T02:48:11;5.57;;;3.70;;
12816;SDS011;6473;51.552;6.716;2023-06-14T02:50:39;3.83;;;3.17;;
12816;SDS011;6473;51.552;6.716;2023-06-14T02:53:06;4.47;;;3.40;;
12816;SDS011;6473;51.552;6.716;2023-06-14T02:55:34;4.32;;;3.35;;
12816;SDS011;6473;51.552;6.716;2023-06-14T02:58:05;5.97;;;3.47;;
12816;SDS011;6473;51.552;6.716;2023-06-14T03:00:33;3.75;;;3.40;;
12816;SDS011;6473;51.552;6.716;2023-06-14T03:03:01;4.75;;;3.38;;
12816;SDS011;6473;51.552;6.716;2023-06-14T03:05:31;4.30;;;3.40;;
12816;SDS011;6473;51.552;6.716;2023-06-14T03:07:59;6.03;;;3.15;;
12816;SDS011;6473;51.552;6.716;2023-06-14T03:10:26;3.67;;;3.38;;
12816;SDS011;6473;51.552;6.716;2023-06-14T03:12:54;3.47;;;3.17;;
12816;SDS011;6473;51.552;6.716;2023-06-14T03:15:21;3.88;;;3.35;;
12816;SDS011;6473;51.552;6.716;2023-06-14T03:17:50;5.85;;;3.97;;
12816;SDS011;6473;51.552;6.716;2023-06-14T03:20:19;3.97;;;3.58;;
12816;SDS011;6473;51.552;6.716;2023-06-14T03:22:48;4.22;;;3.22;;
12816;SDS011;6473;51.552;6.716;2023-06-14T03:25:15;4.00;;;3.33;;
12816;SDS011;6473;51.552;6.716;2023-06-14T03:27:46;4.00;;;3.05;;
12816;SDS011;6473;51.552;6.716;2023-06-14T03:30:13;4.00;;;3.00;;
12816;SDS011;6473;51.552;6.716;2023-06-14T03:32:42;4.63;;;3.20;;
12816;SDS011;6473;51.552;6.716;2023-06-14T03:35:10;4.57;;;3.53;;
12816;SDS011;6473;51.552;6.716;2023-06-14T03:37:42;6.82;;;3.55;;
12816;SDS011;6473;51.552;6.716;2023-06-14T03:40:12;3.40;;;3.10;;
12816;SDS011;6473;51.552;6.716;2023-06-14T03:42:41;3.40;;;3.03;;
12816;SDS011;6473;51.552;6.716;2023-06-14T03:45:09;4.45;;;3.33;;
12816;SDS011;6473;51.552;6.716;2023-06-14T03:47:36;4.00;;;3.55;;
12816;SDS011;6473;51.552;6.716;2023-06-14T03:50:03;8.45;;;3.40;;
12816;SDS011;6473;51.552;6.716;2023-06-14T03:52:31;3.13;;;2.90;;
12816;SDS011;6473;51.552;6.716;2023-06-14T03:54:59;4.53;;;3.05;;
12816;SDS011;6473;51.552;6.716;2023-06-14T03:57:29;5.43;;;3.22;;
12816;SDS011;6473;51.552;6.716;2023-06-14T03:59:57;4.05;;;2.85;;
12816;SDS011;6473;51.552;6.716;2023-06-14T04:02:25;5.05;;;3.20;;
12816;SDS011;6473;51.552;6.716;2023-06-14T04:04:54;3.60;;;3.10;;
12816;SDS011;6473;51.552;6.716;2023-06-14T04:07:22;3.42;;;2.78;;
12816;SDS011;6473;51.552;6.716;2023-06-14T04:09:51;3.63;;;3.25;;
12816;SDS011;6473;51.552;6.716;2023-06-14T04:12:18;3.03;;;2.80;;
12816;SDS011;6473;51.552;6.716;2023-06-14T04:14:46;3.72;;;2.95;;
12816;SDS011;6473;51.552;6.716;2023-06-14T04:17:13;3.45;;;3.03;;
12816;SDS011;6473;51.552;6.716;2023-06-14T04:19:43;3.50;;;2.88;;
12816;SDS011;6473;51.552;6.716;2023-06-14T04:22:10;3.17;;;2.88;;
12816;SDS011;6473;51.552;6.716;2023-06-14T04:24:38;3.47;;;2.80;;
12816;SDS011;6473;51.552;6.716;2023-06-14T04:27:08;4.18;;;3.00;;
12816;SDS011;6473;51.552;6.716;2023-06-14T04:29:36;5.78;;;2.95;;
12816;SDS011;6473;51.552;6.716;2023-06-14T04:32:08;4.10;;;3.00;;
12816;SDS011;6473;51.552;6.716;2023-06-14T04:34:38;4.28;;;2.72;;
12816;SDS011;6473;51.552;6.716;2023-06-14T04:37:07;3.08;;;2.78;;
12816;SDS011;6473;51.552;6.716;2023-06-14T04:39:37;3.67;;;3.15;;
12816;SDS011;6473;51.552;6.716;2023-06-14T04:42:05;3.25;;;2.70;;
12816;SDS011;6473;51.552;6.716;2023-06-14T04:44:33;3.03;;;2.72;;
12816;SDS011;6473;51.552;6.716;2023-06-14T04:47:02;10.20;;;4.20;;
12816;SDS011;6473;51.552;6.716;2023-06-14T04:49:31;3.15;;;2.63;;
12816;SDS011;6473;51.552;6.716;2023-06-14T04:51:59;3.08;;;2.78;;
12816;SDS011;6473;51.552;6.716;2023-06-14T04:54:33;4.95;;;3.40;;
12816;SDS011;6473;51.552;6.716;2023-06-14T04:57:03;3.78;;;2.45;;
12816;SDS011;6473;51.552;6.716;2023-06-14T04:59:31;5.20;;;3.03;;
12816;SDS011;6473;51.552;6.716;2023-06-14T05:01:58;6.30;;;3.40;;
12816;SDS011;6473;51.552;6.716;2023-06-14T05:04:26;5.43;;;3.05;;
12816;SDS011;6473;51.552;6.716;2023-06-14T05:06:56;4.25;;;2.80;;
12816;SDS011;6473;51.552;6.716;2023-06-14T05:09:24;3.10;;;2.90;;
12816;SDS011;6473;51.552;6.716;2023-06-14T05:11:51;5.85;;;2.80;;
12816;SDS011;6473;51.552;6.716;2023-06-14T05:14:19;3.35;;;2.90;;
12816;SDS011;6473;51.552;6.716;2023-06-14T05:16:49;3.22;;;2.90;;
12816;SDS011;6473;51.552;6.716;2023-06-14T05:19:15;4.10;;;3.35;;
12816;SDS011;6473;51.552;6.716;2023-06-14T05:21:43;5.55;;;3.35;;
12816;SDS011;6473;51.552;6.716;2023-06-14T05:24:11;4.25;;;3.03;;
12816;SDS011;6473;51.552;6.716;2023-06-14T05:26:38;5.60;;;2.97;;
12816;SDS011;6473;51.552;6.716;2023-06-14T05:29:04;6.68;;;2.75;;
12816;SDS011;6473;51.552;6.716;2023-06-14T05:31:32;3.03;;;2.42;;
12816;SDS011;6473;51.552;6.716;2023-06-14T05:33:58;6.90;;;2.95;;
12816;SDS011;6473;51.552;6.716;2023-06-14T05:36:25;3.30;;;2.83;;
12816;SDS011;6473;51.552;6.716;2023-06-14T05:38:53;3.53;;;2.70;;
12816;SDS011;6473;51.552;6.716;2023-06-14T05:41:24;4.05;;;3.20;;
12816;SDS011;6473;51.552;6.716;2023-06-14T05:43:51;6.25;;;2.92;;
12816;SDS011;6473;51.552;6.716;2023-06-14T05:46:18;6.65;;;2.90;;
12816;SDS011;6473;51.552;6.716;2023-06-14T05:48:47;5.80;;;2.80;;
12816;SDS011;6473;51.552;6.716;2023-06-14T05:51:14;3.35;;;2.53;;
12816;SDS011;6473;51.552;6.716;2023-06-14T05:53:44;4.25;;;2.95;;
12816;SDS011;6473;51.552;6.716;2023-06-14T05:56:11;6.90;;;3.10;;
12816;SDS011;6473;51.552;6.716;2023-06-14T05:58:39;5.38;;;2.80;;
12816;SDS011;6473;51.552;6.716;2023-06-14T06:01:06;5.05;;;2.60;;
12816;SDS011;6473;51.552;6.716;2023-06-14T06:03:33;3.13;;;2.80;;
12816;SDS011;6473;51.552;6.716;2023-06-14T06:06:00;9.98;;;2.65;;
12816;SDS011;6473;51.552;6.716;2023-06-14T06:08:28;3.10;;;2.65;;
12816;SDS011;6473;51.552;6.716;2023-06-14T06:10:55;3.55;;;3.20;;
12816;SDS011;6473;51.552;6.716;2023-06-14T06:13:22;4.30;;;2.65;;
12816;SDS011;6473;51.552;6.716;2023-06-14T06:15:50;2.70;;;2.50;;
12816;SDS011;6473;51.552;6.716;2023-06-14T06:18:17;2.67;;;2.42;;
12816;SDS011;6473;51.552;6.716;2023-06-14T06:20:44;4.32;;;2.15;;
12816;SDS011;6473;51.552;6.716;2023-06-14T06:23:12;4.18;;;2.97;;
12816;SDS011;6473;51.552;6.716;2023-06-14T06:25:39;3.97;;;2.60;;
12816;SDS011;6473;51.552;6.716;2023-06-14T06:28:06;6.68;;;2.55;;
12816;SDS011;6473;51.552;6.716;2023-06-14T06:30:33;3.88;;;2.30;;
12816;SDS011;6473;51.552;6.716;2023-06-14T06:33:02;4.93;;;2.65;;
12816;SDS011;6473;51.552;6.716;2023-06-14T06:35:29;2.13;;;2.03;;
12816;SDS011;6473;51.552;6.716;2023-06-14T06:37:58;3.70;;;2.25;;
12816;SDS011;6473;51.552;6.716;2023-06-14T06:40:25;3.17;;;2.35;;
12816;SDS011;6473;51.552;6.716;2023-06-14T06:42:52;3.28;;;2.20;;
12816;SDS011;6473;51.552;6.716;2023-06-14T06:45:19;2.47;;;2.30;;
12816;SDS011;6473;51.552;6.716;2023-06-14T06:47:48;4.25;;;2.35;;
12816;SDS011;6473;51.552;6.716;2023-06-14T06:50:17;3.95;;;2.20;;
12816;SDS011;6473;51.552;6.716;2023-06-14T06:52:44;2.78;;;1.70;;
12816;SDS011;6473;51.552;6.716;2023-06-14T06:55:11;2.97;;;2.00;;
12816;SDS011;6473;51.552;6.716;2023-06-14T06:57:38;2.28;;;2.00;;
12816;SDS011;6473;51.552;6.716;2023-06-14T07:00:06;2.88;;;2.00;;
12816;SDS011;6473;51.552;6.716;2023-06-14T07:02:34;5.82;;;1.80;;
12816;SDS011;6473;51.552;6.716;2023-06-14T07:05:01;4.57;;;1.92;;
12816;SDS011;6473;51.552;6.716;2023-06-14T07:07:30;3.33;;;1.90;;
12816;SDS011;6473;51.552;6.716;2023-06-14T07:09:57;4.28;;;1.88;;
12816;SDS011;6473;51.552;6.716;2023-06-14T07:12:25;3.63;;;1.90;;
12816;SDS011;6473;51.552;6.716;2023-06-14T07:14:52;2.60;;;1.75;;
12816;SDS011;6473;51.552;6.716;2023-06-14T07:17:19;2.20;;;1.80;;
12816;SDS011;6473;51.552;6.716;2023-06-14T07:19:46;3.88;;;2.05;;
12816;SDS011;6473;51.552;6.716;2023-06-14T07:22:16;4.32;;;2.33;;
12816;SDS011;6473;51.552;6.716;2023-06-14T07:24:45;2.60;;;1.98;;
12816;SDS011;6473;51.552;6.716;2023-06-14T07:27:11;3.75;;;2.15;;
12816;SDS011;6473;51.552;6.716;2023-06-14T07:29:38;4.05;;;2.10;;
12816;SDS011;6473;51.552;6.716;2023-06-14T07:32:07;6.13;;;1.83;;
12816;SDS011;6473;51.552;6.716;2023-06-14T07:34:34;3.08;;;2.25;;
12816;SDS011;6473;51.552;6.716;2023-06-14T07:37:02;2.38;;;1.83;;
12816;SDS011;6473;51.552;6.716;2023-06-14T07:39:30;3.20;;;1.80;;
12816;SDS011;6473;51.552;6.716;2023-06-14T07:41:58;1.83;;;1.73;;
12816;SDS011;6473;51.552;6.716;2023-06-14T07:44:27;3.50;;;2.22;;
12816;SDS011;6473;51.552;6.716;2023-06-14T07:46:56;2.03;;;1.92;;
12816;SDS011;6473;51.552;6.716;2023-06-14T07:49:25;3.78;;;2.22;;
12816;SDS011;6473;51.552;6.716;2023-06-14T07:51:52;5.65;;;2.38;;
12816;SDS011;6473;51.552;6.716;2023-06-14T07:54:18;2.53;;;2.17;;
12816;SDS011;6473;51.552;6.716;2023-06-14T07:56:49;2.75;;;2.17;;
12816;SDS011;6473;51.552;6.716;2023-06-14T07:59:19;2.65;;;1.80;;
12816;SDS011;6473;51.552;6.716;2023-06-14T08:01:46;2.65;;;1.90;;
12816;SDS011;6473;51.552;6.716;2023-06-14T08:04:13;2.05;;;1.85;;
12816;SDS011;6473;51.552;6.716;2023-06-14T08:06:40;3.47;;;1.90;;
12816;SDS011;6473;51.552;6.716;2023-06-14T08:09:09;3.08;;;2.10;;
12816;SDS011;6473;51.552;6.716;2023-06-14T08:11:37;4.65;;;1.90;;
12816;SDS011;6473;51.552;6.716;2023-06-14T08:14:04;5.05;;;2.20;;
12816;SDS011;6473;51.552;6.716;2023-06-14T08:16:32;8.65;;;2.67;;
12816;SDS011;6473;51.552;6.716;2023-06-14T08:18:59;6.07;;;2.05;;
12816;SDS011;6473;51.552;6.716;2023-06-14T08:21:27;2.10;;;1.75;;
12816;SDS011;6473;51.552;6.716;2023-06-14T08:23:54;2.05;;;1.83;;
12816;SDS011;6473;51.552;6.716;2023-06-14T08:26:24;3.50;;;2.00;;
12816;SDS011;6473;51.552;6.716;2023-06-14T08:28:54;2.78;;;1.70;;
12816;SDS011;6473;51.552;6.716;2023-06-14T08:31:21;1.90;;;1.80;;
12816;SDS011;6473;51.552;6.716;2023-06-14T08:33:50;2.42;;;2.03;;
12816;SDS011;6473;51.552;6.716;2023-06-14T08:36:20;2.00;;;1.80;;
12816;SDS011;6473;51.552;6.716;2023-06-14T08:38:48;2.88;;;1.90;;
12816;SDS011;6473;51.552;6.716;2023-06-14T08:41:17;16.95;;;2.45;;
12816;SDS011;6473;51.552;6.716;2023-06-14T08:43:52;2.03;;;1.92;;
12816;SDS011;6473;51.552;6.716;2023-06-14T08:46:25;4.22;;;2.00;;
12816;SDS011;6473;51.552;6.716;2023-06-14T08:48:55;3.20;;;2.00;;
12816;SDS011;6473;51.552;6.716;2023-06-14T08:51:23;3.20;;;1.70;;
12816;SDS011;6473;51.552;6.716;2023-06-14T08:53:59;4.38;;;1.77;;
12816;SDS011;6473;51.552;6.716;2023-06-14T08:56:27;2.28;;;1.70;;
12816;SDS011;6473;51.552;6.716;2023-06-14T08:58:55;2.10;;;1.90;;
12816;SDS011;6473;51.552;6.716;2023-06-14T09:01:25;2.10;;;1.90;;
12816;SDS011;6473;51.552;6.716;2023-06-14T09:03:52;1.90;;;1.80;;
12816;SDS011;6473;51.552;6.716;2023-06-14T09:06:23;1.95;;;1.85;;
12816;SDS011;6473;51.552;6.716;2023-06-14T09:08:50;2.83;;;1.77;;
12816;SDS011;6473;51.552;6.716;2023-06-14T09:11:19;2.05;;;1.70;;
12816;SDS011;6473;51.552;6.716;2023-06-14T09:13:46;2.95;;;1.60;;
12816;SDS011;6473;51.552;6.716;2023-06-14T09:16:13;3.35;;;1.75;;
12816;SDS011;6473;51.552;6.716;2023-06-14T09:18:40;5.50;;;1.95;;
12816;SDS011;6473;51.552;6.716;2023-06-14T09:21:09;3.00;;;1.70;;
12816;SDS011;6473;51.552;6.716;2023-06-14T09:23:39;1.52;;;1.45;;
12816;SDS011;6473;51.552;6.716;2023-06-14T09:26:07;1.67;;;1.58;;
12816;SDS011;6473;51.552;6.716;2023-06-14T09:28:36;2.75;;;2.00;;
12816;SDS011;6473;51.552;6.716;2023-06-14T09:31:10;2.90;;;1.90;;
12816;SDS011;6473;51.552;6.716;2023-06-14T09:33:37;3.88;;;2.10;;
12816;SDS011;6473;51.552;6.716;2023-06-14T09:36:04;1.70;;;1.60;;
12816;SDS011;6473;51.552;6.716;2023-06-14T09:38:35;2.03;;;1.80;;
12816;SDS011;6473;51.552;6.716;2023-06-14T09:41:03;6.97;;;2.22;;
12816;SDS011;6473;51.552;6.716;2023-06-14T09:43:31;5.45;;;1.70;;
12816;SDS011;6473;51.552;6.716;2023-06-14T09:46:00;5.18;;;1.92;;
12816;SDS011;6473;51.552;6.716;2023-06-14T09:48:27;1.95;;;1.58;;
12816;SDS011;6473;51.552;6.716;2023-06-14T09:50:53;7.63;;;1.83;;
12816;SDS011;6473;51.552;6.716;2023-06-14T09:53:22;2.38;;;1.70;;
12816;SDS011;6473;51.552;6.716;2023-06-14T09:55:51;2.42;;;1.45;;
12816;SDS011;6473;51.552;6.716;2023-06-14T09:58:22;2.42;;;1.52;;
12816;SDS011;6473;51.552;6.716;2023-06-14T10:00:52;5.55;;;1.90;;
12816;SDS011;6473;51.552;6.716;2023-06-14T10:03:21;3.95;;;1.52;;
12816;SDS011;6473;51.552;6.716;2023-06-14T10:05:51;2.35;;;1.40;;
12816;SDS011;6473;51.552;6.716;2023-06-14T10:08:20;2.72;;;1.40;;
12816;SDS011;6473;51.552;6.716;2023-06-14T10:10:53;1.50;;;1.40;;
12816;SDS011;6473;51.552;6.716;2023-06-14T10:13:23;3.10;;;1.42;;
12816;SDS011;6473;51.552;6.716;2023-06-14T10:15:52;3.72;;;1.50;;
12816;SDS011;6473;51.552;6.716;2023-06-14T10:18:27;5.25;;;1.85;;
12816;SDS011;6473;51.552;6.716;2023-06-14T10:21:04;2.40;;;1.20;;
12816;SDS011;6473;51.552;6.716;2023-06-14T10:23:40;4.30;;;1.27;;
12816;SDS011;6473;51.552;6.716;2023-06-14T10:26:08;2.67;;;1.10;;
12816;SDS011;6473;51.552;6.716;2023-06-14T10:28:56;1.10;;;1.10;;
12816;SDS011;6473;51.552;6.716;2023-06-14T10:31:42;1.02;;;1.00;;
12816;SDS011;6473;51.552;6.716;2023-06-14T10:34:12;2.72;;;1.02;;
12816;SDS011;6473;51.552;6.716;2023-06-14T10:36:59;2.50;;;1.23;;
12816;SDS011;6473;51.552;6.716;2023-06-14T10:39:28;2.35;;;1.23;;
12816;SDS011;6473;51.552;6.716;2023-06-14T10:41:55;1.27;;;1.17;;
12816;SDS011;6473;51.552;6.716;2023-06-14T10:44:34;4.32;;;1.10;;
12816;SDS011;6473;51.552;6.716;2023-06-14T10:47:09;2.40;;;1.33;;
12816;SDS011;6473;51.552;6.716;2023-06-14T10:49:41;1.63;;;1.20;;
12816;SDS011;6473;51.552;6.716;2023-06-14T10:52:11;1.00;;;0.90;;
12816;SDS011;6473;51.552;6.716;2023-06-14T10:57:41;3.67;;;1.20;;
12816;SDS011;6473;51.552;6.716;2023-06-14T11:00:13;4.57;;;1.55;;
12816;SDS011;6473;51.552;6.716;2023-06-14T11:02:46;2.15;;;1.10;;
12816;SDS011;6473;51.552;6.716;2023-06-14T11:05:26;3.67;;;1.30;;
12816;SDS011;6473;51.552;6.716;2023-06-14T11:10:54;2.50;;;1.10;;
12816;SDS011;6473;51.552;6.716;2023-06-14T11:13:25;2.15;;;0.98;;
12816;SDS011;6473;51.552;6.716;2023-06-14T11:15:53;4.75;;;2.05;;
12816;SDS011;6473;51.552;6.716;2023-06-14T11:18:22;3.40;;;1.55;;
12816;SDS011;6473;51.552;6.716;2023-06-14T11:20:52;1.13;;;1.05;;
12816;SDS011;6473;51.552;6.716;2023-06-14T11:23:20;1.40;;;1.10;;
12816;SDS011;6473;51.552;6.716;2023-06-14T11:25:49;2.70;;;1.20;;
12816;SDS011;6473;51.552;6.716;2023-06-14T11:28:16;2.35;;;1.27;;
12816;SDS011;6473;51.552;6.716;2023-06-14T11:30:46;3.67;;;1.30;;
12816;SDS011;6473;51.552;6.716;2023-06-14T11:33:18;2.13;;;1.10;;
12816;SDS011;6473;51.552;6.716;2023-06-14T11:35:45;1.65;;;1.15;;
12816;SDS011;6473;51.552;6.716;2023-06-14T11:38:12;6.40;;;1.75;;
12816;SDS011;6473;51.552;6.716;2023-06-14T11:40:39;1.85;;;1.30;;
12816;SDS011;6473;51.552;6.716;2023-06-14T11:43:06;4.28;;;1.38;;
12816;SDS011;6473;51.552;6.716;2023-06-14T11:45:33;5.53;;;1.70;;
12816;SDS011;6473;51.552;6.716;2023-06-14T11:48:02;2.40;;;1.30;;
12816;SDS011;6473;51.552;6.716;2023-06-14T11:50:33;6.68;;;1.67;;
12816;SDS011;6473;51.552;6.716;2023-06-14T11:53:04;1.60;;;1.50;;
12816;SDS011;6473;51.552;6.716;2023-06-14T11:55:35;3.28;;;1.50;;
12816;SDS011;6473;51.552;6.716;2023-06-14T11:58:28;1.38;;;1.27;;
12816;SDS011;6473;51.552;6.716;2023-06-14T12:01:03;5.00;;;1.80;;
12816;SDS011;6473;51.552;6.716;2023-06-14T12:03:34;1.85;;;1.40;;
12816;SDS011;6473;51.552;6.716;2023-06-14T12:06:03;3.92;;;1.63;;
12816;SDS011;6473;51.552;6.716;2023-06-14T12:08:33;2.00;;;1.30;;
12816;SDS011;6473;51.552;6.716;2023-06-14T12:11:10;3.17;;;1.40;;
12816;SDS011;6473;51.552;6.716;2023-06-14T12:13:56;2.50;;;1.20;;
12816;SDS011;6473;51.552;6.716;2023-06-14T12:17:03;3.63;;;1.58;;
12816;SDS011;6473;51.552;6.716;2023-06-14T12:19:17;2.90;;;1.40;;
12816;SDS011;6473;51.552;6.716;2023-06-14T12:22:28;3.47;;;1.40;;
12816;SDS011;6473;51.552;6.716;2023-06-14T12:24:59;1.65;;;1.52;;
12816;SDS011;6473;51.552;6.716;2023-06-14T12:27:28;1.40;;;1.30;;
12816;SDS011;6473;51.552;6.716;2023-06-14T12:29:58;2.97;;;1.50;;
12816;SDS011;6473;51.552;6.716;2023-06-14T12:32:26;6.80;;;1.85;;
12816;SDS011;6473;51.552;6.716;2023-06-14T12:34:56;3.25;;;1.60;;
12816;SDS011;6473;51.552;6.716;2023-06-14T12:37:26;1.65;;;1.25;;
12816;SDS011;6473;51.552;6.716;2023-06-14T12:39:57;1.75;;;1.40;;
12816;SDS011;6473;51.552;6.716;2023-06-14T12:42:25;1.42;;;1.33;;
12816;SDS011;6473;51.552;6.716;2023-06-14T12:44:52;5.72;;;1.55;;
12816;SDS011;6473;51.552;6.716;2023-06-14T12:47:19;4.88;;;1.50;;
12816;SDS011;6473;51.552;6.716;2023-06-14T12:49:46;2.05;;;1.60;;
12816;SDS011;6473;51.552;6.716;2023-06-14T12:52:13;1.92;;;1.45;;
12816;SDS011;6473;51.552;6.716;2023-06-14T12:54:48;1.67;;;1.58;;
12816;SDS011;6473;51.552;6.716;2023-06-14T12:57:15;2.83;;;1.35;;
12816;SDS011;6473;51.552;6.716;2023-06-14T13:00:06;1.80;;;1.60;;
12816;SDS011;6473;51.552;6.716;2023-06-14T13:02:38;2.80;;;1.52;;
12816;SDS011;6473;51.552;6.716;2023-06-14T13:05:05;2.38;;;1.52;;
12816;SDS011;6473;51.552;6.716;2023-06-14T13:07:58;3.13;;;1.73;;
12816;SDS011;6473;51.552;6.716;2023-06-14T13:10:32;1.92;;;1.55;;
12816;SDS011;6473;51.552;6.716;2023-06-14T13:13:10;5.07;;;1.83;;
12816;SDS011;6473;51.552;6.716;2023-06-14T13:15:40;1.75;;;1.52;;
12816;SDS011;6473;51.552;6.716;2023-06-14T13:18:08;3.15;;;2.22;;
12816;SDS011;6473;51.552;6.716;2023-06-14T13:20:40;3.00;;;1.50;;
12816;SDS011;6473;51.552;6.716;2023-06-14T13:23:10;2.92;;;1.98;;
12816;SDS011;6473;51.552;6.716;2023-06-14T13:28:25;1.98;;;1.70;;
12816;SDS011;6473;51.552;6.716;2023-06-14T13:31:29;2.47;;;1.70;;
12816;SDS011;6473;51.552;6.716;2023-06-14T13:33:56;1.95;;;1.85;;
12816;SDS011;6473;51.552;6.716;2023-06-14T13:36:33;4.30;;;1.60;;
12816;SDS011;6473;51.552;6.716;2023-06-14T13:39:03;1.90;;;1.80;;
12816;SDS011;6473;51.552;6.716;2023-06-14T13:41:35;3.60;;;2.25;;
12816;SDS011;6473;51.552;6.716;2023-06-14T13:44:04;1.88;;;1.77;;
12816;SDS011;6473;51.552;6.716;2023-06-14T13:46:36;3.00;;;1.98;;
12816;SDS011;6473;51.552;6.716;2023-06-14T13:49:09;6.32;;;2.10;;
12816;SDS011;6473;51.552;6.716;2023-06-14T13:51:37;3.30;;;1.77;;
12816;SDS011;6473;51.552;6.716;2023-06-14T13:54:14;2.72;;;1.60;;
12816;SDS011;6473;51.552;6.716;2023-06-14T13:56:42;2.00;;;1.90;;
12816;SDS011;6473;51.552;6.716;2023-06-14T13:59:12;1.95;;;1.70;;
12816;SDS011;6473;51.552;6.716;2023-06-14T14:01:42;2.50;;;1.60;;
12816;SDS011;6473;51.552;6.716;2023-06-14T14:04:12;4.90;;;1.77;;
12816;SDS011;6473;51.552;6.716;2023-06-14T14:06:43;2.05;;;1.70;;
12816;SDS011;6473;51.552;6.716;2023-06-14T14:09:10;3.25;;;1.40;;
12816;SDS011;6473;51.552;6.716;2023-06-14T14:11:44;2.97;;;1.98;;
12816;SDS011;6473;51.552;6.716;2023-06-14T14:14:15;2.00;;;1.90;;
12816;SDS011;6473;51.552;6.716;2023-06-14T14:16:43;2.83;;;2.08;;
12816;SDS011;6473;51.552;6.716;2023-06-14T14:19:11;3.55;;;2.10;;
12816;SDS011;6473;51.552;6.716;2023-06-14T14:21:39;4.03;;;2.20;;
12816;SDS011;6473;51.552;6.716;2023-06-14T14:24:09;3.08;;;2.10;;
12816;SDS011;6473;51.552;6.716;2023-06-14T14:26:36;4.25;;;1.70;;
12816;SDS011;6473;51.552;6.716;2023-06-14T14:29:04;5.43;;;2.05;;
12816;SDS011;6473;51.552;6.716;2023-06-14T14:31:47;3.05;;;1.80;;
12816;SDS011;6473;51.552;6.716;2023-06-14T14:34:19;2.78;;;1.85;;
12816;SDS011;6473;51.552;6.716;2023-06-14T14:36:46;2.92;;;1.90;;
12816;SDS011;6473;51.552;6.716;2023-06-14T14:39:33;2.25;;;1.92;;
12816;SDS011;6473;51.552;6.716;2023-06-14T14:42:01;4.50;;;2.10;;
12816;SDS011;6473;51.552;6.716;2023-06-14T14:47:18;8.10;;;3.00;;
12816;SDS011;6473;51.552;6.716;2023-06-14T14:49:48;3.15;;;1.70;;
12816;SDS011;6473;51.552;6.716;2023-06-14T14:52:16;2.15;;;1.95;;
12816;SDS011;6473;51.552;6.716;2023-06-14T14:57:21;3.45;;;2.08;;
12816;SDS011;6473;51.552;6.716;2023-06-14T14:59:49;2.75;;;2.00;;
12816;SDS011;6473;51.552;6.716;2023-06-14T15:02:17;2.40;;;1.90;;
12816;SDS011;6473;51.552;6.716;2023-06-14T15:04:44;2.00;;;1.90;;
12816;SDS011;6473;51.552;6.716;2023-06-14T15:07:19;7.82;;;2.20;;
12816;SDS011;6473;51.552;6.716;2023-06-14T15:09:46;4.18;;;2.30;;
12816;SDS011;6473;51.552;6.716;2023-06-14T15:12:15;2.47;;;2.20;;
12816;SDS011;6473;51.552;6.716;2023-06-14T15:14:42;2.35;;;2.15;;
12816;SDS011;6473;51.552;6.716;2023-06-14T15:17:22;3.33;;;2.17;;
12816;SDS011;6473;51.552;6.716;2023-06-14T15:19:50;2.38;;;2.17;;
12816;SDS011;6473;51.552;6.716;2023-06-14T15:22:17;4.20;;;2.10;;
12816;SDS011;6473;51.552;6.716;2023-06-14T15:24:44;1.98;;;1.88;;
12816;SDS011;6473;51.552;6.716;2023-06-14T15:27:11;4.18;;;2.70;;
12816;SDS011;6473;51.552;6.716;2023-06-14T15:29:39;3.78;;;2.05;;
12816;SDS011;6473;51.552;6.716;2023-06-14T15:32:07;2.70;;;2.08;;
12816;SDS011;6473;51.552;6.716;2023-06-14T15:34:36;2.00;;;1.80;;
12816;SDS011;6473;51.552;6.716;2023-06-14T15:37:04;8.63;;;2.40;;
12816;SDS011;6473;51.552;6.716;2023-06-14T15:39:32;2.10;;;1.83;;
12816;SDS011;6473;51.552;6.716;2023-06-14T15:41:59;4.05;;;2.10;;
12816;SDS011;6473;51.552;6.716;2023-06-14T15:44:28;4.03;;;2.25;;
12816;SDS011;6473;51.552;6.716;2023-06-14T15:46:55;2.20;;;1.95;;